PHJLI EHMZ-EHMZ
Flight info
| Callsign | PHJLI |
|---|---|
| Flight time | 0h 50m |
| Altitude | 1500 |
| Route | RIVER DCT INKET DCT VICOT |
| Aircraft | DA42/L-SBDGRY/S |
Departure
| Time | 2026-05-06 17:18 |
|---|---|
| Airport | Midden-Zeeland Airfield (EHMZ) |
Arrival
| Time | 2026-05-06 18:09 |
|---|---|
| Airport | Midden-Zeeland Airfield (EHMZ) |
| Time | Latitude | Longitude | Altitude | Speed | Heading |
|---|---|---|---|---|---|
| 2026-05-06 17:00 | 51.51311 | 3.72889 | 11 ft | 0 kts | 38° |
| 2026-05-06 17:12 | 51.51314 | 3.72895 | 14 ft | 3 kts | 70° |
| 2026-05-06 17:12 | 51.51308 | 3.72919 | 11 ft | 3 kts | 167° |
| 2026-05-06 17:13 | 51.51297 | 3.72907 | 12 ft | 7 kts | 269° |
| 2026-05-06 17:13 | 51.51300 | 3.72774 | 11 ft | 14 kts | 272° |
| 2026-05-06 17:13 | 51.51261 | 3.72632 | 10 ft | 13 kts | 222° |
| 2026-05-06 17:13 | 51.51216 | 3.72687 | 10 ft | 14 kts | 72° |
| 2026-05-06 17:14 | 51.51220 | 3.72724 | 10 ft | 0 kts | 76° |
| 2026-05-06 17:15 | 51.51226 | 3.72774 | 10 ft | 23 kts | 75° |
| 2026-05-06 17:15 | 51.51284 | 3.73097 | 13 ft | 38 kts | 101° |
| 2026-05-06 17:15 | 51.51261 | 3.73717 | 33 ft | 75 kts | 88° |
| 2026-05-06 17:16 | 51.51174 | 3.74441 | 245 ft | 63 kts | 113° |
| 2026-05-06 17:16 | 51.50897 | 3.75198 | 295 ft | 77 kts | 81° |
| 2026-05-06 17:16 | 51.51160 | 3.75326 | 546 ft | 68 kts | 288° |
| 2026-05-06 17:16 | 51.50916 | 3.74587 | 400 ft | 70 kts | 257° |
| 2026-05-06 17:17 | 51.50927 | 3.74494 | 12 ft | 21 kts | 21° |
| 2026-05-06 17:17 | 51.51135 | 3.74615 | 8 ft | 40 kts | 19° |
| 2026-05-06 17:17 | 51.51422 | 3.74766 | 110 ft | 45 kts | 12° |
| 2026-05-06 17:17 | 51.51743 | 3.74969 | 224 ft | 64 kts | 64° |
| 2026-05-06 17:18 | 51.51941 | 3.75709 | 244 ft | 87 kts | 14° |
| 2026-05-06 17:18 | 51.52401 | 3.75024 | 371 ft | 106 kts | 301° |
| 2026-05-06 17:18 | 51.52843 | 3.74138 | 580 ft | 100 kts | 332° |
| 2026-05-06 17:18 | 51.53423 | 3.73466 | 792 ft | 103 kts | 331° |
| 2026-05-06 17:19 | 51.54018 | 3.72840 | 992 ft | 104 kts | 334° |
| 2026-05-06 17:19 | 51.54635 | 3.72204 | 1204 ft | 106 kts | 334° |
| 2026-05-06 17:19 | 51.55258 | 3.71574 | 1413 ft | 106 kts | 335° |
| 2026-05-06 17:19 | 51.55919 | 3.71022 | 1483 ft | 109 kts | 356° |
| 2026-05-06 17:20 | 51.56685 | 3.71119 | 1492 ft | 112 kts | 11° |
| 2026-05-06 17:20 | 51.57417 | 3.71576 | 1501 ft | 115 kts | 26° |
| 2026-05-06 17:20 | 51.58137 | 3.72151 | 1495 ft | 116 kts | 27° |
| 2026-05-06 17:20 | 51.58885 | 3.72703 | 1493 ft | 119 kts | 26° |
| 2026-05-06 17:21 | 51.59638 | 3.73258 | 1497 ft | 119 kts | 26° |
| 2026-05-06 17:21 | 51.60388 | 3.73806 | 1501 ft | 117 kts | 25° |
| 2026-05-06 17:21 | 51.61113 | 3.74373 | 1498 ft | 115 kts | 26° |
| 2026-05-06 17:21 | 51.61821 | 3.74917 | 1495 ft | 113 kts | 26° |
| 2026-05-06 17:22 | 51.62517 | 3.75455 | 1475 ft | 109 kts | 26° |
| 2026-05-06 17:22 | 51.63192 | 3.75961 | 1482 ft | 106 kts | 26° |
| 2026-05-06 17:22 | 51.63863 | 3.76449 | 1476 ft | 105 kts | 26° |
| 2026-05-06 17:22 | 51.64530 | 3.76913 | 1478 ft | 104 kts | 25° |
| 2026-05-06 17:23 | 51.65190 | 3.77404 | 1479 ft | 105 kts | 26° |
| 2026-05-06 17:23 | 51.65846 | 3.77906 | 1482 ft | 104 kts | 26° |
| 2026-05-06 17:23 | 51.66499 | 3.78392 | 1480 ft | 103 kts | 26° |
| 2026-05-06 17:23 | 51.67145 | 3.78867 | 1481 ft | 101 kts | 26° |
| 2026-05-06 17:24 | 51.67791 | 3.79346 | 1479 ft | 103 kts | 25° |
| 2026-05-06 17:24 | 51.68437 | 3.79858 | 1485 ft | 104 kts | 26° |
| 2026-05-06 17:24 | 51.69081 | 3.80376 | 1480 ft | 105 kts | 26° |
| 2026-05-06 17:24 | 51.69732 | 3.80904 | 1491 ft | 104 kts | 28° |
| 2026-05-06 17:25 | 51.70367 | 3.81440 | 1484 ft | 102 kts | 28° |
| 2026-05-06 17:25 | 51.70993 | 3.81967 | 1485 ft | 101 kts | 28° |
| 2026-05-06 17:25 | 51.71624 | 3.82502 | 1482 ft | 104 kts | 28° |
| 2026-05-06 17:25 | 51.72249 | 3.83028 | 1484 ft | 106 kts | 28° |
| 2026-05-06 17:26 | 51.72934 | 3.83578 | 1490 ft | 107 kts | 27° |
| 2026-05-06 17:26 | 51.73587 | 3.84123 | 1492 ft | 105 kts | 28° |
| 2026-05-06 17:26 | 51.74228 | 3.84655 | 1491 ft | 104 kts | 28° |
| 2026-05-06 17:26 | 51.74872 | 3.85171 | 1486 ft | 103 kts | 28° |
| 2026-05-06 17:27 | 51.75521 | 3.85682 | 1481 ft | 104 kts | 28° |
| 2026-05-06 17:27 | 51.76168 | 3.86189 | 1477 ft | 103 kts | 27° |
| 2026-05-06 17:27 | 51.76803 | 3.86710 | 1481 ft | 102 kts | 28° |
| 2026-05-06 17:27 | 51.77434 | 3.87233 | 1476 ft | 103 kts | 28° |
| 2026-05-06 17:28 | 51.78077 | 3.87762 | 1477 ft | 104 kts | 29° |
| 2026-05-06 17:28 | 51.78725 | 3.88261 | 1482 ft | 103 kts | 28° |
| 2026-05-06 17:28 | 51.79373 | 3.88738 | 1483 ft | 101 kts | 28° |
| 2026-05-06 17:28 | 51.80021 | 3.89238 | 1492 ft | 105 kts | 28° |
| 2026-05-06 17:29 | 51.80676 | 3.89767 | 1489 ft | 106 kts | 28° |
| 2026-05-06 17:29 | 51.81331 | 3.90315 | 1490 ft | 107 kts | 28° |
| 2026-05-06 17:29 | 51.81994 | 3.90864 | 1490 ft | 107 kts | 28° |
| 2026-05-06 17:29 | 51.82657 | 3.91389 | 1494 ft | 106 kts | 28° |
| 2026-05-06 17:30 | 51.83328 | 3.91897 | 1500 ft | 107 kts | 27° |
| 2026-05-06 17:30 | 51.83995 | 3.92435 | 1493 ft | 107 kts | 28° |
| 2026-05-06 17:30 | 51.84657 | 3.92971 | 1492 ft | 106 kts | 28° |
| 2026-05-06 17:30 | 51.85317 | 3.93490 | 1491 ft | 105 kts | 28° |
| 2026-05-06 17:31 | 51.85979 | 3.93993 | 1485 ft | 105 kts | 28° |
| 2026-05-06 17:31 | 51.86635 | 3.94501 | 1491 ft | 105 kts | 27° |
| 2026-05-06 17:31 | 51.87296 | 3.95021 | 1484 ft | 106 kts | 28° |
| 2026-05-06 17:31 | 51.87953 | 3.95544 | 1488 ft | 107 kts | 27° |
| 2026-05-06 17:32 | 51.88611 | 3.96082 | 1484 ft | 104 kts | 29° |
| 2026-05-06 17:32 | 51.89250 | 3.96577 | 1479 ft | 100 kts | 28° |
| 2026-05-06 17:32 | 51.89878 | 3.97060 | 1484 ft | 100 kts | 29° |
| 2026-05-06 17:32 | 51.90512 | 3.97561 | 1489 ft | 102 kts | 37° |
| 2026-05-06 17:33 | 51.91024 | 3.98380 | 1491 ft | 105 kts | 45° |
| 2026-05-06 17:33 | 51.91529 | 3.99230 | 1495 ft | 105 kts | 45° |
| 2026-05-06 17:33 | 51.92023 | 4.00088 | 1496 ft | 104 kts | 45° |
| 2026-05-06 17:33 | 51.92519 | 4.00947 | 1496 ft | 105 kts | 45° |
| 2026-05-06 17:34 | 51.93017 | 4.01817 | 1497 ft | 106 kts | 45° |
| 2026-05-06 17:34 | 51.93529 | 4.02695 | 1504 ft | 108 kts | 45° |
| 2026-05-06 17:34 | 51.94053 | 4.03589 | 1499 ft | 110 kts | 45° |
| 2026-05-06 17:34 | 51.94577 | 4.04490 | 1501 ft | 110 kts | 45° |
| 2026-05-06 17:35 | 51.95098 | 4.05415 | 1501 ft | 112 kts | 45° |
| 2026-05-06 17:35 | 51.95636 | 4.06338 | 1505 ft | 112 kts | 45° |
| 2026-05-06 17:35 | 51.96016 | 4.07423 | 1498 ft | 117 kts | 81° |
| 2026-05-06 17:36 | 51.95880 | 4.10025 | 1502 ft | 117 kts | 88° |
| 2026-05-06 17:36 | 51.95804 | 4.11358 | 1501 ft | 119 kts | 88° |
| 2026-05-06 17:36 | 51.95726 | 4.12698 | 1499 ft | 120 kts | 89° |
| 2026-05-06 17:36 | 51.95648 | 4.14025 | 1499 ft | 119 kts | 92° |
| 2026-05-06 17:37 | 51.95453 | 4.15330 | 1493 ft | 119 kts | 99° |
| 2026-05-06 17:37 | 51.95150 | 4.16582 | 1494 ft | 120 kts | 105° |
| 2026-05-06 17:37 | 51.94825 | 4.17817 | 1489 ft | 120 kts | 108° |
| 2026-05-06 17:37 | 51.94425 | 4.19005 | 1487 ft | 121 kts | 111° |
| 2026-05-06 17:38 | 51.93993 | 4.20195 | 1491 ft | 125 kts | 116° |
| 2026-05-06 17:38 | 51.93464 | 4.21332 | 1497 ft | 127 kts | 121° |
| 2026-05-06 17:38 | 51.92923 | 4.22461 | 1499 ft | 127 kts | 120° |
| 2026-05-06 17:38 | 51.92387 | 4.23589 | 1494 ft | 125 kts | 120° |
| 2026-05-06 17:39 | 51.91868 | 4.24715 | 1499 ft | 123 kts | 118° |
| 2026-05-06 17:39 | 51.91397 | 4.25870 | 1496 ft | 123 kts | 116° |
| 2026-05-06 17:39 | 51.90915 | 4.27030 | 1499 ft | 125 kts | 116° |
| 2026-05-06 17:39 | 51.90435 | 4.28204 | 1496 ft | 125 kts | 116° |
| 2026-05-06 17:40 | 51.90047 | 4.29440 | 1493 ft | 122 kts | 107° |
| 2026-05-06 17:40 | 51.89782 | 4.30748 | 1490 ft | 121 kts | 98° |
| 2026-05-06 17:40 | 51.89621 | 4.32077 | 1487 ft | 119 kts | 93° |
| 2026-05-06 17:40 | 51.89572 | 4.33407 | 1481 ft | 118 kts | 87° |
| 2026-05-06 17:41 | 51.89538 | 4.34717 | 1496 ft | 116 kts | 87° |
| 2026-05-06 17:41 | 51.89559 | 4.36008 | 1497 ft | 115 kts | 82° |
| 2026-05-06 17:41 | 51.89629 | 4.37311 | 1499 ft | 117 kts | 81° |
| 2026-05-06 17:41 | 51.89701 | 4.38621 | 1494 ft | 117 kts | 81° |
| 2026-05-06 17:42 | 51.89761 | 4.39925 | 1497 ft | 116 kts | 81° |
| 2026-05-06 17:42 | 51.89810 | 4.41205 | 1495 ft | 115 kts | 81° |
| 2026-05-06 17:42 | 51.89928 | 4.42471 | 1497 ft | 114 kts | 75° |
| 2026-05-06 17:42 | 51.90071 | 4.43732 | 1494 ft | 113 kts | 75° |
| 2026-05-06 17:43 | 51.90209 | 4.44977 | 1494 ft | 112 kts | 73° |
| 2026-05-06 17:43 | 51.90438 | 4.46175 | 1498 ft | 112 kts | 68° |
| 2026-05-06 17:43 | 51.90674 | 4.47378 | 1491 ft | 112 kts | 68° |
| 2026-05-06 17:43 | 51.90904 | 4.48563 | 1491 ft | 110 kts | 69° |
| 2026-05-06 17:44 | 51.91067 | 4.49771 | 1496 ft | 110 kts | 76° |
| 2026-05-06 17:44 | 51.91157 | 4.51016 | 1487 ft | 115 kts | 88° |
| 2026-05-06 17:44 | 51.90989 | 4.52301 | 1490 ft | 117 kts | 96° |
| 2026-05-06 17:44 | 51.90806 | 4.53589 | 1489 ft | 118 kts | 96° |
| 2026-05-06 17:45 | 51.90619 | 4.54880 | 1494 ft | 118 kts | 98° |
| 2026-05-06 17:45 | 51.90089 | 4.55935 | 1489 ft | 128 kts | 139° |
| 2026-05-06 17:45 | 51.89198 | 4.56287 | 1486 ft | 135 kts | 168° |
| 2026-05-06 17:45 | 51.88293 | 4.56620 | 1489 ft | 133 kts | 160° |
| 2026-05-06 17:46 | 51.87406 | 4.57030 | 1489 ft | 131 kts | 155° |
| 2026-05-06 17:46 | 51.86553 | 4.57540 | 1492 ft | 129 kts | 151° |
| 2026-05-06 17:46 | 51.85727 | 4.58137 | 1496 ft | 131 kts | 149° |
| 2026-05-06 17:46 | 51.84888 | 4.58705 | 1496 ft | 130 kts | 150° |
| 2026-05-06 17:47 | 51.84027 | 4.59169 | 1492 ft | 134 kts | 171° |
| 2026-05-06 17:47 | 51.83181 | 4.58543 | 1484 ft | 140 kts | 229° |
| 2026-05-06 17:47 | 51.82787 | 4.57727 | 1494 ft | 139 kts | 233° |
| 2026-05-06 17:47 | 51.81984 | 4.56109 | 1500 ft | 139 kts | 232° |
| 2026-05-06 17:48 | 51.81378 | 4.54886 | 1499 ft | 139 kts | 232° |
| 2026-05-06 17:48 | 51.80779 | 4.53667 | 1500 ft | 139 kts | 232° |
| 2026-05-06 17:48 | 51.80179 | 4.52445 | 1499 ft | 138 kts | 232° |
| 2026-05-06 17:48 | 51.79781 | 4.51642 | 1499 ft | 138 kts | 232° |
| 2026-05-06 17:49 | 51.79192 | 4.50430 | 1502 ft | 137 kts | 232° |
| 2026-05-06 17:49 | 51.78607 | 4.49203 | 1500 ft | 139 kts | 232° |
| 2026-05-06 17:49 | 51.78013 | 4.47974 | 1502 ft | 138 kts | 233° |
| 2026-05-06 17:49 | 51.77421 | 4.46761 | 1503 ft | 137 kts | 232° |
| 2026-05-06 17:50 | 51.76829 | 4.45546 | 1498 ft | 138 kts | 232° |
| 2026-05-06 17:50 | 51.76245 | 4.44320 | 1499 ft | 138 kts | 232° |
| 2026-05-06 17:50 | 51.75664 | 4.43100 | 1495 ft | 137 kts | 232° |
| 2026-05-06 17:50 | 51.75084 | 4.41873 | 1497 ft | 138 kts | 232° |
| 2026-05-06 17:51 | 51.74492 | 4.40651 | 1498 ft | 137 kts | 232° |
| 2026-05-06 17:51 | 51.73903 | 4.39441 | 1501 ft | 137 kts | 232° |
| 2026-05-06 17:51 | 51.73329 | 4.38234 | 1497 ft | 138 kts | 233° |
| 2026-05-06 17:51 | 51.72740 | 4.36997 | 1495 ft | 138 kts | 232° |
| 2026-05-06 17:52 | 51.72155 | 4.35771 | 1494 ft | 138 kts | 232° |
| 2026-05-06 17:52 | 51.71573 | 4.34542 | 1498 ft | 138 kts | 232° |
| 2026-05-06 17:52 | 51.70987 | 4.33309 | 1494 ft | 138 kts | 232° |
| 2026-05-06 17:52 | 51.70396 | 4.32081 | 1497 ft | 139 kts | 232° |
| 2026-05-06 17:53 | 51.69799 | 4.30849 | 1497 ft | 140 kts | 232° |
| 2026-05-06 17:53 | 51.69208 | 4.29595 | 1494 ft | 140 kts | 232° |
| 2026-05-06 17:53 | 51.68611 | 4.28348 | 1496 ft | 141 kts | 232° |
| 2026-05-06 17:53 | 51.68006 | 4.27099 | 1498 ft | 142 kts | 232° |
| 2026-05-06 17:54 | 51.67397 | 4.25855 | 1495 ft | 142 kts | 232° |
| 2026-05-06 17:54 | 51.66795 | 4.24601 | 1490 ft | 142 kts | 233° |
| 2026-05-06 17:54 | 51.66187 | 4.23349 | 1494 ft | 142 kts | 232° |
| 2026-05-06 17:54 | 51.65587 | 4.22098 | 1494 ft | 140 kts | 232° |
| 2026-05-06 17:55 | 51.64986 | 4.20857 | 1494 ft | 141 kts | 232° |
| 2026-05-06 17:55 | 51.64376 | 4.19616 | 1488 ft | 141 kts | 232° |
| 2026-05-06 17:55 | 51.63769 | 4.18338 | 1373 ft | 146 kts | 233° |
| 2026-05-06 17:55 | 51.63140 | 4.17054 | 1246 ft | 148 kts | 232° |
| 2026-05-06 17:56 | 51.62500 | 4.15752 | 1122 ft | 149 kts | 232° |
| 2026-05-06 17:56 | 51.61852 | 4.14423 | 993 ft | 149 kts | 232° |
| 2026-05-06 17:56 | 51.61227 | 4.13121 | 863 ft | 148 kts | 232° |
| 2026-05-06 17:56 | 51.60611 | 4.11808 | 737 ft | 148 kts | 233° |
| 2026-05-06 17:57 | 51.59989 | 4.10501 | 692 ft | 144 kts | 231° |
| 2026-05-06 17:57 | 51.59393 | 4.09233 | 690 ft | 140 kts | 232° |
| 2026-05-06 17:57 | 51.58805 | 4.07980 | 686 ft | 141 kts | 232° |
| 2026-05-06 17:57 | 51.58199 | 4.06740 | 679 ft | 140 kts | 232° |
| 2026-05-06 17:58 | 51.57710 | 4.05392 | 684 ft | 141 kts | 243° |
| 2026-05-06 17:58 | 51.57244 | 4.04006 | 684 ft | 140 kts | 243° |
| 2026-05-06 17:58 | 51.56776 | 4.02646 | 679 ft | 139 kts | 242° |
| 2026-05-06 17:58 | 51.56326 | 4.01264 | 678 ft | 139 kts | 246° |
| 2026-05-06 17:59 | 51.55927 | 3.99862 | 676 ft | 137 kts | 249° |
| 2026-05-06 17:59 | 51.55582 | 3.98427 | 681 ft | 139 kts | 253° |
| 2026-05-06 17:59 | 51.55255 | 3.96977 | 678 ft | 136 kts | 252° |
| 2026-05-06 17:59 | 51.54937 | 3.95580 | 678 ft | 130 kts | 253° |
| 2026-05-06 18:00 | 51.54615 | 3.94228 | 676 ft | 130 kts | 253° |
| 2026-05-06 18:00 | 51.54283 | 3.92887 | 675 ft | 131 kts | 252° |
| 2026-05-06 18:00 | 51.53963 | 3.91536 | 678 ft | 127 kts | 256° |
| 2026-05-06 18:00 | 51.53706 | 3.90200 | 677 ft | 124 kts | 257° |
| 2026-05-06 18:01 | 51.53441 | 3.88882 | 676 ft | 123 kts | 257° |
| 2026-05-06 18:01 | 51.53176 | 3.87612 | 677 ft | 115 kts | 257° |
| 2026-05-06 18:01 | 51.52926 | 3.86384 | 674 ft | 117 kts | 258° |
| 2026-05-06 18:01 | 51.52666 | 3.85133 | 677 ft | 118 kts | 257° |
| 2026-05-06 18:02 | 51.52406 | 3.83916 | 678 ft | 114 kts | 257° |
| 2026-05-06 18:02 | 51.52141 | 3.82719 | 674 ft | 112 kts | 257° |
| 2026-05-06 18:02 | 51.51876 | 3.81615 | 678 ft | 101 kts | 256° |
| 2026-05-06 18:02 | 51.51749 | 3.80585 | 675 ft | 89 kts | 271° |
| 2026-05-06 18:03 | 51.51656 | 3.79619 | 675 ft | 86 kts | 271° |
| 2026-05-06 18:03 | 51.51545 | 3.78688 | 678 ft | 87 kts | 270° |
| 2026-05-06 18:03 | 51.51432 | 3.77727 | 676 ft | 83 kts | 270° |
| 2026-05-06 18:03 | 51.51327 | 3.76868 | 675 ft | 75 kts | 270° |
| 2026-05-06 18:04 | 51.51231 | 3.76081 | 648 ft | 70 kts | 269° |
| 2026-05-06 18:04 | 51.51148 | 3.75284 | 693 ft | 79 kts | 279° |
| 2026-05-06 18:04 | 51.51234 | 3.74336 | 739 ft | 95 kts | 291° |
| 2026-05-06 18:04 | 51.51359 | 3.73204 | 737 ft | 111 kts | 289° |
| 2026-05-06 18:05 | 51.51526 | 3.71917 | 710 ft | 121 kts | 291° |
| 2026-05-06 18:05 | 51.51743 | 3.70616 | 700 ft | 121 kts | 292° |
| 2026-05-06 18:05 | 51.51851 | 3.69264 | 702 ft | 123 kts | 278° |
| 2026-05-06 18:05 | 51.51861 | 3.67926 | 695 ft | 117 kts | 279° |
| 2026-05-06 18:06 | 51.51871 | 3.66633 | 684 ft | 114 kts | 279° |
| 2026-05-06 18:06 | 51.51790 | 3.65413 | 679 ft | 116 kts | 246° |
| 2026-05-06 18:06 | 51.51104 | 3.64838 | 685 ft | 112 kts | 169° |
| 2026-05-06 18:06 | 51.50635 | 3.65479 | 619 ft | 79 kts | 91° |
| 2026-05-06 18:07 | 51.50544 | 3.66308 | 553 ft | 73 kts | 82° |
| 2026-05-06 18:07 | 51.50544 | 3.67122 | 508 ft | 72 kts | 77° |
| 2026-05-06 18:07 | 51.50624 | 3.67869 | 523 ft | 63 kts | 67° |
| 2026-05-06 18:07 | 51.50756 | 3.68604 | 429 ft | 71 kts | 71° |
| 2026-05-06 18:08 | 51.50901 | 3.69382 | 361 ft | 73 kts | 72° |
| 2026-05-06 18:08 | 51.50982 | 3.70221 | 266 ft | 80 kts | 82° |
| 2026-05-06 18:08 | 51.50999 | 3.71091 | 196 ft | 76 kts | 76° |
| 2026-05-06 18:08 | 51.51017 | 3.71920 | 123 ft | 76 kts | 79° |
| 2026-05-06 18:09 | 51.51044 | 3.72739 | 8 ft | 65 kts | 71° |
| 2026-05-06 18:09 | 51.51201 | 3.73013 | 15 ft | 23 kts | 39° |
| 2026-05-06 18:09 | 51.51278 | 3.73087 | 13 ft | 8 kts | 22° |
| 2026-05-06 18:09 | 51.51312 | 3.73113 | 11 ft | 0 kts | 28° |